Flight Track Log - Related Links

Times and Time Zones

All times are in EDT time to prevent confusion due to time zone crossing. See the N5213F flight status page for this flight to view local times or setup timezone preferences in your user account.

Time Position Orientation Groundspeed Altitude Reporting Facility
EDT Latitude Longitude Course Direction KTS MPH feet Rate Location/Type
Thu 04:09:16 PM 33.8333 -118.1667 239° Southwest 78 90 800  Level Southern California TRACON
Thu 04:10:22 PM 33.8167 -118.2000 239° Southwest 87 100 1,500 605 Climbing Southern California TRACON
Thu 04:11:15 PM 33.7997 -118.2153 217° Southwest 84 97 2,000 678 Climbing Los Angeles Center
Thu 04:12:17 PM 33.7806 -118.2242 201° Southwest 82 94 2,800 672 Climbing Los Angeles Center
Thu 04:13:20 PM 33.7769 -118.2067 104° East 73 84 3,400 480 Climbing Los Angeles Center
Thu 04:14:22 PM 33.7808 -118.1839 78° East 68 78 3,800 435 Climbing Los Angeles Center
Thu 04:15:24 PM 33.7861 -118.1461 80° East 83 96 4,300 450 Climbing Los Angeles Center
Thu 04:16:22 PM 33.7833 -118.1167 96° East 95 109 4,700 356 Climbing Southern California TRACON
Thu 04:17:22 PM 33.7833 -118.0833 90° East 92 106 5,000 150 Climbing Southern California TRACON
Thu 04:18:22 PM 33.7833 -118.0500 90° East 101 116 5,000  Level Southern California TRACON
Thu 04:19:17 PM 33.8000 -118.0167 59° Northeast 98 113 5,000  Level Southern California TRACON
Thu 04:20:23 PM 33.8000 -117.9833 90° East 92 106 5,000  Level Southern California TRACON
Thu 04:21:23 PM 33.8167 -117.9500 59° Northeast 97 112 5,000  Level Southern California TRACON
Thu 04:22:23 PM 33.8167 -117.9167 90° East 100 115 5,000  Level Southern California TRACON
Thu 04:23:23 PM 33.8333 -117.8833 59° Northeast 99 114 5,000  Level Southern California TRACON
Thu 04:24:18 PM 33.8500 -117.8667 40° Northeast 116 133 5,000  Level Southern California TRACON
Thu 04:25:18 PM 33.8667 -117.8500 40° Northeast 122 140 5,000 50 Level Southern California TRACON
Thu 04:26:18 PM 33.8833 -117.8167 59° Northeast 111 128 5,100  Climbing Southern California TRACON
Thu 04:27:24 PM 33.9000 -117.7833 59° Northeast 112 129 5,000 -200 Descending Southern California TRACON
Thu 04:28:18 PM 33.9000 -117.7500 90° East 108 124 4,700 -500 Descending Southern California TRACON
Thu 04:29:24 PM 33.9000 -117.7000 90° East 106 122 4,000 -600 Descending Southern California TRACON
Thu 04:30:18 PM 33.9000 -117.6667 90° East 107 123 3,500 -248 Descending Southern California TRACON
Thu 04:31:25 PM 33.9000 -117.6333 90° East 91 105 3,500 -50 Level Southern California TRACON
Thu 04:32:19 PM 33.9167 -117.6167 40° Northeast 84 97 3,400  Descending Southern California TRACON
Thu 04:33:19 PM 33.9167 -117.5833 90° East 96 110 3,500 50 Climbing Southern California TRACON
Thu 04:34:19 PM 33.9167 -117.5500 90° East 99 114 3,500  Level Southern California TRACON
Thu 04:35:20 PM 33.9167 -117.5167 90° East 100 115 3,500 -50 Level Southern California TRACON
Thu 04:36:20 PM 33.9333 -117.5000 40° Northeast 82 94 3,400  Descending Southern California TRACON
Thu 04:37:20 PM 33.9333 -117.4833 90° East 96 110 3,500 100 Climbing Southern California TRACON

Login

Don't have an account? Register now (free) for customized features, flight alerts, and more!